sensor_id;sensor_type;location;lat;lon;timestamp;pressure;altitude;pressure_sealevel;temperature;humidity
69219;BME280;56232;53.384;-2.732;2023-02-22T00:01:11;100680.24;;;7.02;39.77
69219;BME280;56232;53.384;-2.732;2023-02-22T00:03:36;100675.44;;;6.97;39.68
69219;BME280;56232;53.384;-2.732;2023-02-22T00:06:03;100676.39;;;6.98;39.70
69219;BME280;56232;53.384;-2.732;2023-02-22T00:08:28;100674.56;;;7.51;39.61
69219;BME280;56232;53.384;-2.732;2023-02-22T00:10:52;100662.98;;;7.41;39.54
69219;BME280;56232;53.384;-2.732;2023-02-22T00:13:18;100664.05;;;6.67;39.64
69219;BME280;56232;53.384;-2.732;2023-02-22T00:15:44;100667.42;;;6.55;39.72
69219;BME280;56232;53.384;-2.732;2023-02-22T00:18:10;100668.49;;;7.03;39.75
69219;BME280;56232;53.384;-2.732;2023-02-22T00:20:33;100669.19;;;6.92;39.82
69219;BME280;56232;53.384;-2.732;2023-02-22T00:22:58;100671.50;;;6.79;39.96
69219;BME280;56232;53.384;-2.732;2023-02-22T00:25:24;100670.41;;;6.18;39.98
69219;BME280;56232;53.384;-2.732;2023-02-22T00:27:51;100666.72;;;7.16;40.02
69219;BME280;56232;53.384;-2.732;2023-02-22T00:30:16;100660.31;;;6.00;40.04
69219;BME280;56232;53.384;-2.732;2023-02-22T00:32:39;100657.75;;;6.62;40.04
69219;BME280;56232;53.384;-2.732;2023-02-22T00:35:05;100657.99;;;7.19;40.00
69219;BME280;56232;53.384;-2.732;2023-02-22T00:37:30;100660.72;;;6.15;39.95
69219;BME280;56232;53.384;-2.732;2023-02-22T00:40:00;100652.28;;;6.18;39.91
69219;BME280;56232;53.384;-2.732;2023-02-22T00:42:21;100641.63;;;6.89;39.85
69219;BME280;56232;53.384;-2.732;2023-02-22T00:44:46;100647.70;;;7.01;39.67
69219;BME280;56232;53.384;-2.732;2023-02-22T00:47:11;100641.06;;;6.33;39.64
69219;BME280;56232;53.384;-2.732;2023-02-22T00:49:37;100640.17;;;6.24;39.68
69219;BME280;56232;53.384;-2.732;2023-02-22T00:52:03;100635.70;;;6.82;39.59
69219;BME280;56232;53.384;-2.732;2023-02-22T00:54:27;100632.84;;;7.20;39.63
69219;BME280;56232;53.384;-2.732;2023-02-22T00:56:53;100629.10;;;6.16;39.71
69219;BME280;56232;53.384;-2.732;2023-02-22T00:59:19;100621.13;;;6.86;39.67
69219;BME280;56232;53.384;-2.732;2023-02-22T01:01:45;100615.48;;;7.37;39.51
69219;BME280;56232;53.384;-2.732;2023-02-22T01:04:10;100615.81;;;7.39;39.51
69219;BME280;56232;53.384;-2.732;2023-02-22T01:06:36;100605.22;;;7.43;39.30
69219;BME280;56232;53.384;-2.732;2023-02-22T01:09:02;100600.73;;;6.35;39.44
69219;BME280;56232;53.384;-2.732;2023-02-22T01:11:28;100601.56;;;6.47;39.24
69219;BME280;56232;53.384;-2.732;2023-02-22T01:13:54;100604.83;;;7.12;39.26
69219;BME280;56232;53.384;-2.732;2023-02-22T01:16:19;100598.16;;;6.55;39.09
69219;BME280;56232;53.384;-2.732;2023-02-22T01:18:45;100597.40;;;6.47;39.06
69219;BME280;56232;53.384;-2.732;2023-02-22T01:21:10;100597.91;;;7.06;39.13
69219;BME280;56232;53.384;-2.732;2023-02-22T01:23:36;100596.54;;;7.06;39.04
69219;BME280;56232;53.384;-2.732;2023-02-22T01:26:02;100596.07;;;6.48;38.95
69219;BME280;56232;53.384;-2.732;2023-02-22T01:28:27;100593.59;;;6.46;38.86
69219;BME280;56232;53.384;-2.732;2023-02-22T01:30:53;100591.16;;;6.95;38.95
69219;BME280;56232;53.384;-2.732;2023-02-22T01:33:19;100587.07;;;6.82;39.02
69219;BME280;56232;53.384;-2.732;2023-02-22T01:35:44;100583.85;;;6.15;39.07
69219;BME280;56232;53.384;-2.732;2023-02-22T01:38:10;100587.38;;;6.08;39.15
69219;BME280;56232;53.384;-2.732;2023-02-22T01:40:37;100583.59;;;6.77;39.03
69219;BME280;56232;53.384;-2.732;2023-02-22T01:43:05;100584.69;;;6.92;38.97
69219;BME280;56232;53.384;-2.732;2023-02-22T01:45:37;100584.56;;;6.45;38.86
69219;BME280;56232;53.384;-2.732;2023-02-22T01:47:52;100584.52;;;7.17;38.82
69219;BME280;56232;53.384;-2.732;2023-02-22T01:50:18;100575.48;;;6.72;38.69
69219;BME280;56232;53.384;-2.732;2023-02-22T01:52:43;100570.93;;;7.91;38.58
69219;BME280;56232;53.384;-2.732;2023-02-22T01:55:10;100569.93;;;6.40;38.54
69219;BME280;56232;53.384;-2.732;2023-02-22T01:57:36;100570.14;;;7.09;38.52
69219;BME280;56232;53.384;-2.732;2023-02-22T02:00:04;100564.85;;;7.14;38.32
69219;BME280;56232;53.384;-2.732;2023-02-22T02:02:26;100564.65;;;7.12;38.32
69219;BME280;56232;53.384;-2.732;2023-02-22T02:04:53;100570.61;;;7.11;38.32
69219;BME280;56232;53.384;-2.732;2023-02-22T02:07:20;100578.20;;;6.76;38.35
69219;BME280;56232;53.384;-2.732;2023-02-22T02:09:51;100578.40;;;7.43;38.19
69219;BME280;56232;53.384;-2.732;2023-02-22T02:12:12;100571.51;;;7.40;38.17
69219;BME280;56232;53.384;-2.732;2023-02-22T02:14:35;100571.47;;;7.37;38.17
69219;BME280;56232;53.384;-2.732;2023-02-22T02:17:00;100570.90;;;7.35;38.10
69219;BME280;56232;53.384;-2.732;2023-02-22T02:19:33;100566.89;;;7.31;38.08
69219;BME280;56232;53.384;-2.732;2023-02-22T02:26:57;100557.21;;;7.21;38.20
69219;BME280;56232;53.384;-2.732;2023-02-22T02:29:25;100553.47;;;7.26;38.17
69219;BME280;56232;53.384;-2.732;2023-02-22T02:34:03;100555.51;;;7.19;38.24
69219;BME280;56232;53.384;-2.732;2023-02-22T02:36:31;100553.49;;;7.11;38.21
69219;BME280;56232;53.384;-2.732;2023-02-22T02:38:56;100550.25;;;7.10;38.05
69219;BME280;56232;53.384;-2.732;2023-02-22T02:41:22;100545.53;;;7.14;38.09
69219;BME280;56232;53.384;-2.732;2023-02-22T02:43:46;100543.26;;;7.11;37.89
69219;BME280;56232;53.384;-2.732;2023-02-22T02:46:11;100536.20;;;6.46;38.08
69219;BME280;56232;53.384;-2.732;2023-02-22T02:48:35;100538.69;;;6.97;38.24
69219;BME280;56232;53.384;-2.732;2023-02-22T02:51:02;100533.34;;;7.08;38.06
69219;BME280;56232;53.384;-2.732;2023-02-22T02:53:30;100532.41;;;7.04;38.10
69219;BME280;56232;53.384;-2.732;2023-02-22T02:55:51;100528.71;;;7.12;38.10
69219;BME280;56232;53.384;-2.732;2023-02-22T02:58:20;100526.58;;;7.23;38.07
69219;BME280;56232;53.384;-2.732;2023-02-22T03:00:42;100520.77;;;7.20;37.86
69219;BME280;56232;53.384;-2.732;2023-02-22T03:05:43;100518.28;;;7.17;37.85
69219;BME280;56232;53.384;-2.732;2023-02-22T03:08:03;100514.72;;;7.14;38.06
69219;BME280;56232;53.384;-2.732;2023-02-22T03:10:37;100512.73;;;7.13;37.86
69219;BME280;56232;53.384;-2.732;2023-02-22T03:12:56;100514.96;;;7.14;37.99
69219;BME280;56232;53.384;-2.732;2023-02-22T03:15:25;100517.27;;;7.22;37.99
69219;BME280;56232;53.384;-2.732;2023-02-22T03:17:47;100519.03;;;7.36;37.83
69219;BME280;56232;53.384;-2.732;2023-02-22T03:20:10;100511.77;;;6.91;37.80
69219;BME280;56232;53.384;-2.732;2023-02-22T03:22:36;100514.99;;;7.49;37.78
69219;BME280;56232;53.384;-2.732;2023-02-22T03:25:01;100515.66;;;7.66;37.77
69219;BME280;56232;53.384;-2.732;2023-02-22T03:27:27;100516.90;;;7.64;37.68
69219;BME280;56232;53.384;-2.732;2023-02-22T03:29:53;100512.06;;;7.50;37.48
69219;BME280;56232;53.384;-2.732;2023-02-22T03:32:19;100518.51;;;6.64;37.66
69219;BME280;56232;53.384;-2.732;2023-02-22T03:34:42;100519.45;;;7.11;37.91
69219;BME280;56232;53.384;-2.732;2023-02-22T03:37:10;100515.93;;;7.12;37.96
69219;BME280;56232;53.384;-2.732;2023-02-22T03:39:31;100510.05;;;7.18;37.87
69219;BME280;56232;53.384;-2.732;2023-02-22T03:41:59;100505.14;;;7.27;37.90
69219;BME280;56232;53.384;-2.732;2023-02-22T03:44:25;100499.70;;;6.91;37.97
69219;BME280;56232;53.384;-2.732;2023-02-22T03:46:50;100488.90;;;7.59;37.94
69219;BME280;56232;53.384;-2.732;2023-02-22T03:49:16;100488.50;;;7.70;37.87
69219;BME280;56232;53.384;-2.732;2023-02-22T03:51:39;100488.08;;;7.71;37.79
69219;BME280;56232;53.384;-2.732;2023-02-22T03:54:05;100482.84;;;7.07;37.99
69219;BME280;56232;53.384;-2.732;2023-02-22T03:56:32;100478.46;;;7.41;38.06
69219;BME280;56232;53.384;-2.732;2023-02-22T03:58:55;100473.70;;;7.26;38.32
69219;BME280;56232;53.384;-2.732;2023-02-22T04:01:20;100465.88;;;7.19;38.45
69219;BME280;56232;53.384;-2.732;2023-02-22T04:03:46;100465.09;;;6.87;38.67
69219;BME280;56232;53.384;-2.732;2023-02-22T04:06:11;100464.97;;;6.48;39.02
69219;BME280;56232;53.384;-2.732;2023-02-22T04:08:37;100468.74;;;6.90;39.39
69219;BME280;56232;53.384;-2.732;2023-02-22T04:11:03;100473.25;;;6.77;39.64
69219;BME280;56232;53.384;-2.732;2023-02-22T04:13:28;100477.42;;;7.35;39.66
69219;BME280;56232;53.384;-2.732;2023-02-22T04:15:54;100475.28;;;7.39;39.68
69219;BME280;56232;53.384;-2.732;2023-02-22T04:18:19;100480.21;;;6.32;39.86
69219;BME280;56232;53.384;-2.732;2023-02-22T04:20:44;100473.99;;;6.95;39.93
69219;BME280;56232;53.384;-2.732;2023-02-22T04:23:10;100470.09;;;7.10;40.06
69219;BME280;56232;53.384;-2.732;2023-02-22T04:25:36;100477.13;;;6.57;39.88
69219;BME280;56232;53.384;-2.732;2023-02-22T04:28:02;100465.75;;;7.05;39.99
69219;BME280;56232;53.384;-2.732;2023-02-22T04:30:27;100467.11;;;6.91;40.07
69219;BME280;56232;53.384;-2.732;2023-02-22T04:32:52;100462.52;;;6.13;40.31
69219;BME280;56232;53.384;-2.732;2023-02-22T04:35:17;100458.64;;;6.55;40.36
69219;BME280;56232;53.384;-2.732;2023-02-22T04:37:43;100460.75;;;6.55;40.42
69219;BME280;56232;53.384;-2.732;2023-02-22T04:40:10;100460.00;;;5.91;40.59
69219;BME280;56232;53.384;-2.732;2023-02-22T04:42:35;100453.62;;;6.00;40.65
69219;BME280;56232;53.384;-2.732;2023-02-22T04:45:00;100453.06;;;6.16;40.55
69219;BME280;56232;53.384;-2.732;2023-02-22T04:47:26;100455.39;;;7.28;40.68
69219;BME280;56232;53.384;-2.732;2023-02-22T04:49:52;100457.43;;;7.44;40.71
69219;BME280;56232;53.384;-2.732;2023-02-22T04:52:18;100453.36;;;7.04;40.40
69219;BME280;56232;53.384;-2.732;2023-02-22T04:54:43;100454.21;;;6.97;40.65
69219;BME280;56232;53.384;-2.732;2023-02-22T04:57:09;100456.68;;;6.39;40.81
69219;BME280;56232;53.384;-2.732;2023-02-22T04:59:35;100456.70;;;6.54;40.86
69219;BME280;56232;53.384;-2.732;2023-02-22T05:02:01;100452.57;;;6.16;40.85
69219;BME280;56232;53.384;-2.732;2023-02-22T05:04:26;100451.11;;;6.81;40.57
69219;BME280;56232;53.384;-2.732;2023-02-22T05:06:52;100453.64;;;6.90;40.45
69219;BME280;56232;53.384;-2.732;2023-02-22T05:09:17;100453.75;;;7.04;40.41
69219;BME280;56232;53.384;-2.732;2023-02-22T05:11:43;100455.59;;;7.16;40.21
69219;BME280;56232;53.384;-2.732;2023-02-22T05:14:08;100457.26;;;7.78;40.24
69219;BME280;56232;53.384;-2.732;2023-02-22T05:16:33;100457.23;;;7.32;40.26
69219;BME280;56232;53.384;-2.732;2023-02-22T05:18:59;100455.85;;;7.37;40.02
69219;BME280;56232;53.384;-2.732;2023-02-22T05:21:24;100458.48;;;7.40;40.09
69219;BME280;56232;53.384;-2.732;2023-02-22T05:23:51;100458.11;;;7.32;39.68
69219;BME280;56232;53.384;-2.732;2023-02-22T05:26:15;100458.63;;;7.25;39.68
69219;BME280;56232;53.384;-2.732;2023-02-22T05:28:40;100461.25;;;7.09;39.76
69219;BME280;56232;53.384;-2.732;2023-02-22T05:31:07;100460.22;;;7.04;40.15
69219;BME280;56232;53.384;-2.732;2023-02-22T05:33:32;100460.26;;;7.09;40.20
69219;BME280;56232;53.384;-2.732;2023-02-22T05:35:57;100462.48;;;7.02;39.73
69219;BME280;56232;53.384;-2.732;2023-02-22T05:38:22;100460.59;;;6.92;39.84
69219;BME280;56232;53.384;-2.732;2023-02-22T05:40:48;100454.56;;;6.96;39.78
69219;BME280;56232;53.384;-2.732;2023-02-22T05:43:13;100458.86;;;6.99;39.98
69219;BME280;56232;53.384;-2.732;2023-02-22T05:45:38;100458.19;;;6.93;40.14
69219;BME280;56232;53.384;-2.732;2023-02-22T05:48:04;100458.65;;;6.92;40.14
69219;BME280;56232;53.384;-2.732;2023-02-22T05:50:30;100459.08;;;7.39;40.03
69219;BME280;56232;53.384;-2.732;2023-02-22T05:52:55;100463.10;;;7.20;40.12
69219;BME280;56232;53.384;-2.732;2023-02-22T05:55:22;100464.87;;;7.15;40.07
69219;BME280;56232;53.384;-2.732;2023-02-22T05:57:46;100465.18;;;6.33;40.22
69219;BME280;56232;53.384;-2.732;2023-02-22T06:00:16;100464.32;;;6.21;40.60
69219;BME280;56232;53.384;-2.732;2023-02-22T06:02:37;100467.31;;;6.75;40.62
69219;BME280;56232;53.384;-2.732;2023-02-22T06:05:03;100468.05;;;7.11;40.96
69219;BME280;56232;53.384;-2.732;2023-02-22T06:07:28;100469.33;;;7.03;41.07
69219;BME280;56232;53.384;-2.732;2023-02-22T06:09:54;100470.41;;;7.01;40.83
69219;BME280;56232;53.384;-2.732;2023-02-22T06:12:19;100472.56;;;6.51;41.09
69219;BME280;56232;53.384;-2.732;2023-02-22T06:14:45;100469.95;;;7.01;41.04
69219;BME280;56232;53.384;-2.732;2023-02-22T06:17:13;100470.58;;;6.96;41.55
69219;BME280;56232;53.384;-2.732;2023-02-22T06:19:36;100472.48;;;6.55;41.34
69219;BME280;56232;53.384;-2.732;2023-02-22T06:22:02;100471.38;;;7.09;41.45
69219;BME280;56232;53.384;-2.732;2023-02-22T06:24:27;100475.71;;;6.41;41.38
69219;BME280;56232;53.384;-2.732;2023-02-22T06:26:54;100473.22;;;6.29;41.22
69219;BME280;56232;53.384;-2.732;2023-02-22T06:29:18;100470.54;;;6.72;41.45
69219;BME280;56232;53.384;-2.732;2023-02-22T06:31:44;100467.62;;;6.74;41.57
69219;BME280;56232;53.384;-2.732;2023-02-22T06:34:10;100471.38;;;6.33;41.77
69219;BME280;56232;53.384;-2.732;2023-02-22T06:36:36;100471.23;;;6.38;41.73
69219;BME280;56232;53.384;-2.732;2023-02-22T06:39:01;100469.86;;;7.05;42.00
69219;BME280;56232;53.384;-2.732;2023-02-22T06:41:26;100475.46;;;6.22;42.05
69219;BME280;56232;53.384;-2.732;2023-02-22T06:43:52;100479.49;;;6.98;41.93
69219;BME280;56232;53.384;-2.732;2023-02-22T06:46:17;100479.77;;;6.56;41.90
69219;BME280;56232;53.384;-2.732;2023-02-22T06:48:42;100482.48;;;7.73;41.99
69219;BME280;56232;53.384;-2.732;2023-02-22T06:51:08;100492.14;;;6.70;41.80
69219;BME280;56232;53.384;-2.732;2023-02-22T06:53:34;100498.47;;;6.59;41.41
69219;BME280;56232;53.384;-2.732;2023-02-22T06:55:59;100503.34;;;7.46;41.10
69219;BME280;56232;53.384;-2.732;2023-02-22T06:58:25;100504.67;;;6.61;41.81
69219;BME280;56232;53.384;-2.732;2023-02-22T07:00:52;100506.89;;;6.62;42.26
69219;BME280;56232;53.384;-2.732;2023-02-22T07:03:17;100506.02;;;5.65;42.66
69219;BME280;56232;53.384;-2.732;2023-02-22T07:05:42;100505.64;;;5.92;42.76
69219;BME280;56232;53.384;-2.732;2023-02-22T07:08:10;100509.26;;;5.67;43.06
69219;BME280;56232;53.384;-2.732;2023-02-22T07:10:35;100514.60;;;5.50;43.29
69219;BME280;56232;53.384;-2.732;2023-02-22T07:13:00;100513.65;;;5.30;43.35
69219;BME280;56232;53.384;-2.732;2023-02-22T07:15:27;100511.12;;;5.69;43.59
69219;BME280;56232;53.384;-2.732;2023-02-22T07:17:52;100522.07;;;5.61;43.73
69219;BME280;56232;53.384;-2.732;2023-02-22T07:20:18;100528.17;;;5.64;43.81
69219;BME280;56232;53.384;-2.732;2023-02-22T07:22:42;100530.67;;;5.78;43.85
69219;BME280;56232;53.384;-2.732;2023-02-22T07:25:09;100533.72;;;5.28;43.69
69219;BME280;56232;53.384;-2.732;2023-02-22T07:27:35;100537.67;;;5.95;43.60
69219;BME280;56232;53.384;-2.732;2023-02-22T07:29:59;100542.94;;;5.88;43.45
69219;BME280;56232;53.384;-2.732;2023-02-22T07:32:25;100542.04;;;5.26;43.47
69219;BME280;56232;53.384;-2.732;2023-02-22T07:34:51;100548.62;;;5.35;43.40
69219;BME280;56232;53.384;-2.732;2023-02-22T07:37:17;100554.46;;;5.36;43.60
69219;BME280;56232;53.384;-2.732;2023-02-22T07:39:42;100557.80;;;5.01;43.64
69219;BME280;56232;53.384;-2.732;2023-02-22T07:42:08;100561.41;;;6.20;43.60
69219;BME280;56232;53.384;-2.732;2023-02-22T07:44:34;100561.73;;;6.39;43.22
69219;BME280;56232;53.384;-2.732;2023-02-22T07:47:00;100557.72;;;5.37;43.25
69219;BME280;56232;53.384;-2.732;2023-02-22T07:49:25;100561.50;;;6.53;42.95
69219;BME280;56232;53.384;-2.732;2023-02-22T07:51:52;100565.22;;;5.38;43.01
69219;BME280;56232;53.384;-2.732;2023-02-22T07:54:17;100565.80;;;5.90;42.94
69219;BME280;56232;53.384;-2.732;2023-02-22T07:56:44;100569.48;;;5.79;43.04
69219;BME280;56232;53.384;-2.732;2023-02-22T07:59:08;100576.94;;;5.36;43.26
69219;BME280;56232;53.384;-2.732;2023-02-22T08:01:34;100576.52;;;5.95;43.30
69219;BME280;56232;53.384;-2.732;2023-02-22T08:04:00;100582.41;;;6.69;43.27
69219;BME280;56232;53.384;-2.732;2023-02-22T08:06:26;100587.78;;;5.65;42.76
69219;BME280;56232;53.384;-2.732;2023-02-22T08:08:52;100590.55;;;6.14;42.89
69219;BME280;56232;53.384;-2.732;2023-02-22T08:11:17;100593.79;;;6.16;42.77
69219;BME280;56232;53.384;-2.732;2023-02-22T08:13:43;100594.54;;;5.76;42.92
69219;BME280;56232;53.384;-2.732;2023-02-22T08:16:09;100593.23;;;6.87;42.95
69219;BME280;56232;53.384;-2.732;2023-02-22T08:18:34;100600.37;;;5.87;42.98
69219;BME280;56232;53.384;-2.732;2023-02-22T08:21:00;100601.12;;;5.97;42.87
69219;BME280;56232;53.384;-2.732;2023-02-22T08:23:26;100599.91;;;6.12;42.67
69219;BME280;56232;53.384;-2.732;2023-02-22T08:25:53;100603.86;;;6.35;42.66
69219;BME280;56232;53.384;-2.732;2023-02-22T08:28:20;100609.90;;;6.34;42.06
69219;BME280;56232;53.384;-2.732;2023-02-22T08:30:43;100610.18;;;6.27;42.37
69219;BME280;56232;53.384;-2.732;2023-02-22T08:33:09;100612.23;;;6.32;42.61
69219;BME280;56232;53.384;-2.732;2023-02-22T08:35:35;100614.59;;;6.54;42.41
69219;BME280;56232;53.384;-2.732;2023-02-22T08:38:03;100613.51;;;6.70;42.30
69219;BME280;56232;53.384;-2.732;2023-02-22T08:40:28;100613.72;;;6.18;42.34
69219;BME280;56232;53.384;-2.732;2023-02-22T08:42:57;100614.76;;;6.91;42.09
69219;BME280;56232;53.384;-2.732;2023-02-22T08:45:18;100620.03;;;7.01;41.79
69219;BME280;56232;53.384;-2.732;2023-02-22T08:47:43;100621.32;;;6.89;42.17
69219;BME280;56232;53.384;-2.732;2023-02-22T08:50:15;100626.79;;;6.53;42.13
69219;BME280;56232;53.384;-2.732;2023-02-22T08:52:35;100628.51;;;7.13;42.10
69219;BME280;56232;53.384;-2.732;2023-02-22T08:55:01;100622.32;;;7.60;41.91
69219;BME280;56232;53.384;-2.732;2023-02-22T08:57:26;100628.43;;;6.99;41.94
69219;BME280;56232;53.384;-2.732;2023-02-22T08:59:52;100625.86;;;8.15;41.55
69219;BME280;56232;53.384;-2.732;2023-02-22T09:02:20;100630.77;;;7.74;41.46
69219;BME280;56232;53.384;-2.732;2023-02-22T09:04:44;100630.92;;;8.04;41.24
69219;BME280;56232;53.384;-2.732;2023-02-22T09:07:09;100635.69;;;8.29;40.65
69219;BME280;56232;53.384;-2.732;2023-02-22T09:09:35;100632.61;;;8.31;40.31
69219;BME280;56232;53.384;-2.732;2023-02-22T09:12:00;100634.01;;;9.19;40.78
69219;BME280;56232;53.384;-2.732;2023-02-22T09:14:26;100638.68;;;7.18;40.81
69219;BME280;56232;53.384;-2.732;2023-02-22T09:16:52;100639.42;;;7.65;40.61
69219;BME280;56232;53.384;-2.732;2023-02-22T09:19:18;100645.28;;;8.04;40.74
69219;BME280;56232;53.384;-2.732;2023-02-22T09:21:43;100646.40;;;8.04;40.60
69219;BME280;56232;53.384;-2.732;2023-02-22T09:24:09;100648.53;;;7.72;40.89
69219;BME280;56232;53.384;-2.732;2023-02-22T09:26:35;100650.25;;;7.53;41.00
69219;BME280;56232;53.384;-2.732;2023-02-22T09:29:00;100649.19;;;6.99;41.15
69219;BME280;56232;53.384;-2.732;2023-02-22T09:31:26;100654.94;;;7.58;40.94
69219;BME280;56232;53.384;-2.732;2023-02-22T09:33:53;100655.20;;;8.40;40.94
69219;BME280;56232;53.384;-2.732;2023-02-22T09:36:17;100653.52;;;7.72;41.15
69219;BME280;56232;53.384;-2.732;2023-02-22T09:38:43;100660.96;;;7.73;40.94
69219;BME280;56232;53.384;-2.732;2023-02-22T09:41:12;100657.65;;;8.31;41.02
69219;BME280;56232;53.384;-2.732;2023-02-22T09:43:38;100665.41;;;7.77;40.86
69219;BME280;56232;53.384;-2.732;2023-02-22T09:46:07;100666.75;;;7.90;40.75
69219;BME280;56232;53.384;-2.732;2023-02-22T09:48:26;100665.77;;;8.77;39.74
69219;BME280;56232;53.384;-2.732;2023-02-22T09:50:57;100669.38;;;10.56;38.85
69219;BME280;56232;53.384;-2.732;2023-02-22T09:53:22;100664.87;;;10.63;38.92
69219;BME280;56232;53.384;-2.732;2023-02-22T09:55:47;100668.63;;;10.68;38.07
69219;BME280;56232;53.384;-2.732;2023-02-22T09:58:15;100667.74;;;9.65;37.55
69219;BME280;56232;53.384;-2.732;2023-02-22T10:00:36;100670.69;;;10.18;37.63
69219;BME280;56232;53.384;-2.732;2023-02-22T10:03:11;100669.58;;;10.53;36.97
69219;BME280;56232;53.384;-2.732;2023-02-22T10:05:30;100666.55;;;10.89;36.73
69219;BME280;56232;53.384;-2.732;2023-02-22T10:07:57;100673.91;;;10.72;36.68
69219;BME280;56232;53.384;-2.732;2023-02-22T10:10:20;100673.43;;;11.44;36.65
69219;BME280;56232;53.384;-2.732;2023-02-22T10:12:48;100674.21;;;11.75;36.35
69219;BME280;56232;53.384;-2.732;2023-02-22T10:15:25;100676.24;;;10.05;37.04
69219;BME280;56232;53.384;-2.732;2023-02-22T10:17:42;100679.25;;;10.72;37.48
69219;BME280;56232;53.384;-2.732;2023-02-22T10:20:13;100675.55;;;10.51;37.44
69219;BME280;56232;53.384;-2.732;2023-02-22T10:22:38;100676.91;;;10.49;37.68
69219;BME280;56232;53.384;-2.732;2023-02-22T10:24:57;100677.45;;;10.50;37.53
69219;BME280;56232;53.384;-2.732;2023-02-22T10:27:19;100676.61;;;10.29;37.99
69219;BME280;56232;53.384;-2.732;2023-02-22T10:29:44;100680.99;;;10.03;37.67
69219;BME280;56232;53.384;-2.732;2023-02-22T10:32:14;100685.58;;;9.97;38.18
69219;BME280;56232;53.384;-2.732;2023-02-22T10:34:40;100685.43;;;9.85;38.15
69219;BME280;56232;53.384;-2.732;2023-02-22T10:37:12;100694.92;;;9.44;38.46
69219;BME280;56232;53.384;-2.732;2023-02-22T10:39:29;100699.38;;;9.72;39.03
69219;BME280;56232;53.384;-2.732;2023-02-22T10:41:56;100700.55;;;10.27;39.09
69219;BME280;56232;53.384;-2.732;2023-02-22T10:44:17;100699.45;;;10.75;38.77
69219;BME280;56232;53.384;-2.732;2023-02-22T10:46:43;100697.75;;;9.67;38.48
69219;BME280;56232;53.384;-2.732;2023-02-22T10:49:10;100695.53;;;9.90;38.64
69219;BME280;56232;53.384;-2.732;2023-02-22T10:51:34;100699.30;;;10.58;37.76
69219;BME280;56232;53.384;-2.732;2023-02-22T10:56:26;100696.39;;;9.95;38.43
69219;BME280;56232;53.384;-2.732;2023-02-22T10:58:54;100701.72;;;10.39;38.41
69219;BME280;56232;53.384;-2.732;2023-02-22T11:01:19;100704.63;;;9.41;38.71
69219;BME280;56232;53.384;-2.732;2023-02-22T11:03:42;100709.79;;;9.08;39.39
69219;BME280;56232;53.384;-2.732;2023-02-22T11:06:17;100713.41;;;8.87;39.61
69219;BME280;56232;53.384;-2.732;2023-02-22T11:08:33;100719.60;;;9.41;39.33
69219;BME280;56232;53.384;-2.732;2023-02-22T11:11:01;100718.55;;;10.10;39.23
69219;BME280;56232;53.384;-2.732;2023-02-22T11:13:27;100719.38;;;10.05;39.32
69219;BME280;56232;53.384;-2.732;2023-02-22T11:15:54;100719.31;;;9.91;39.50
69219;BME280;56232;53.384;-2.732;2023-02-22T11:18:23;100722.15;;;10.05;39.01
69219;BME280;56232;53.384;-2.732;2023-02-22T11:20:41;100721.71;;;9.38;38.88
69219;BME280;56232;53.384;-2.732;2023-02-22T11:23:07;100712.12;;;10.23;38.20
69219;BME280;56232;53.384;-2.732;2023-02-22T11:25:34;100714.64;;;11.28;37.95
69219;BME280;56232;53.384;-2.732;2023-02-22T11:28:06;100715.84;;;11.21;37.73
69219;BME280;56232;53.384;-2.732;2023-02-22T11:30:28;100721.54;;;10.37;37.92
69219;BME280;56232;53.384;-2.732;2023-02-22T11:32:53;100721.90;;;10.75;38.52
69219;BME280;56232;53.384;-2.732;2023-02-22T11:37:40;100727.15;;;9.21;39.62
69219;BME280;56232;53.384;-2.732;2023-02-22T11:40:12;100734.02;;;9.98;39.98
69219;BME280;56232;53.384;-2.732;2023-02-22T11:42:31;100734.98;;;10.02;39.81
69219;BME280;56232;53.384;-2.732;2023-02-22T11:47:23;100740.85;;;9.95;38.99
69219;BME280;56232;53.384;-2.732;2023-02-22T11:49:49;100740.87;;;9.69;40.12
69219;BME280;56232;53.384;-2.732;2023-02-22T11:52:20;100744.39;;;9.51;39.64
69219;BME280;56232;53.384;-2.732;2023-02-22T11:54:52;100745.99;;;9.06;40.46
69219;BME280;56232;53.384;-2.732;2023-02-22T11:57:16;100747.46;;;9.12;40.22
69219;BME280;56232;53.384;-2.732;2023-02-22T11:59:35;100742.22;;;9.70;40.66
69219;BME280;56232;53.384;-2.732;2023-02-22T12:01:59;100739.16;;;9.10;40.44
69219;BME280;56232;53.384;-2.732;2023-02-22T12:04:30;100741.05;;;10.20;40.12
69219;BME280;56232;53.384;-2.732;2023-02-22T12:06:53;100744.84;;;10.32;40.09
69219;BME280;56232;53.384;-2.732;2023-02-22T12:09:16;100749.93;;;10.05;39.51
69219;BME280;56232;53.384;-2.732;2023-02-22T12:11:47;100740.58;;;9.87;38.99
69219;BME280;56232;53.384;-2.732;2023-02-22T12:14:15;100746.73;;;10.66;39.15
69219;BME280;56232;53.384;-2.732;2023-02-22T12:16:40;100745.72;;;10.58;38.63
69219;BME280;56232;53.384;-2.732;2023-02-22T12:19:07;100749.24;;;10.39;38.64
69219;BME280;56232;53.384;-2.732;2023-02-22T12:21:23;100750.18;;;10.70;38.15
69219;BME280;56232;53.384;-2.732;2023-02-22T12:23:52;100744.01;;;11.35;38.41
69219;BME280;56232;53.384;-2.732;2023-02-22T12:26:15;100750.36;;;10.40;39.24
69219;BME280;56232;53.384;-2.732;2023-02-22T12:28:40;100747.24;;;10.41;39.20
69219;BME280;56232;53.384;-2.732;2023-02-22T12:31:14;100745.10;;;10.29;38.96
69219;BME280;56232;53.384;-2.732;2023-02-22T12:33:37;100745.25;;;11.41;38.94
69219;BME280;56232;53.384;-2.732;2023-02-22T12:35:57;100753.51;;;9.86;39.03
69219;BME280;56232;53.384;-2.732;2023-02-22T12:38:26;100751.47;;;9.99;39.15
69219;BME280;56232;53.384;-2.732;2023-02-22T12:40:56;100753.12;;;9.84;39.47
69219;BME280;56232;53.384;-2.732;2023-02-22T12:43:17;100751.03;;;9.42;39.68
69219;BME280;56232;53.384;-2.732;2023-02-22T12:45:42;100755.83;;;9.75;38.98
69219;BME280;56232;53.384;-2.732;2023-02-22T12:48:19;100755.82;;;10.09;38.78
69219;BME280;56232;53.384;-2.732;2023-02-22T12:50:30;100753.65;;;9.68;38.49
69219;BME280;56232;53.384;-2.732;2023-02-22T12:53:01;100749.68;;;10.69;38.46
69219;BME280;56232;53.384;-2.732;2023-02-22T12:55:24;100748.11;;;10.67;38.15